createdAt,value
2023-08-07T00:00:36.557Z,0.80
2023-08-07T00:03:41.785Z,0.83
2023-08-07T00:06:44.084Z,0.90
2023-08-07T00:09:47.564Z,0.80
2023-08-07T00:12:51.602Z,0.90
2023-08-07T00:16:04.255Z,0.90
2023-08-07T00:19:10.379Z,1.25
2023-08-07T00:22:14.988Z,1.10
2023-08-07T00:25:19.235Z,1.00
2023-08-07T00:28:23.125Z,1.17
2023-08-07T00:31:29.095Z,1.00
2023-08-07T00:34:42.318Z,1.15
2023-08-07T00:37:45.584Z,1.20
2023-08-07T00:40:56.528Z,0.85
2023-08-07T00:44:00.584Z,1.27
2023-08-07T00:47:06.822Z,0.90
2023-08-07T00:50:14.353Z,1.13
2023-08-07T00:53:19.748Z,0.90
2023-08-07T00:56:24.344Z,1.00
2023-08-07T00:59:28.988Z,1.17
2023-08-07T01:02:33.385Z,1.08
2023-08-07T01:05:38.455Z,0.93
2023-08-07T01:08:42.745Z,1.17
2023-08-07T01:12:10.425Z,1.00
2023-08-07T01:15:19.967Z,1.00
2023-08-07T01:18:23.544Z,1.10
2023-08-07T01:21:27.383Z,1.00
2023-08-07T01:24:32.553Z,0.85
2023-08-07T01:28:02.756Z,1.30
2023-08-07T01:31:14.901Z,1.30
2023-08-07T01:34:29.169Z,1.17
2023-08-07T01:37:33.961Z,1.13
2023-08-07T01:40:51.933Z,1.00
2023-08-07T01:44:04.712Z,1.15
2023-08-07T01:47:10.917Z,1.13
2023-08-07T01:50:16.193Z,1.00
2023-08-07T01:53:21.808Z,1.00
2023-08-07T01:56:27.618Z,1.00
2023-08-07T01:59:33.646Z,1.20
2023-08-07T02:02:46.821Z,1.15
2023-08-07T02:05:51.893Z,1.10
2023-08-07T02:09:00.117Z,1.00
2023-08-07T02:12:05.729Z,1.07
2023-08-07T02:15:09.963Z,1.10
2023-08-07T02:18:15.453Z,1.10
2023-08-07T02:21:26.520Z,1.30
2023-08-07T02:24:32.367Z,1.15
2023-08-07T02:27:44.160Z,1.13
2023-08-07T02:30:58.137Z,1.08
2023-08-07T02:34:12.864Z,1.10
2023-08-07T02:37:15.747Z,1.10
2023-08-07T02:40:29.422Z,1.00
2023-08-07T02:43:35.091Z,1.30
2023-08-07T02:46:37.307Z,1.20
2023-08-07T02:49:48.528Z,1.23
2023-08-07T02:52:52.090Z,1.00
2023-08-07T02:55:56.515Z,1.05
2023-08-07T03:02:26.030Z,1.15
2023-08-07T03:05:33.063Z,1.05
2023-08-07T03:08:44.330Z,1.20
2023-08-07T03:11:50.469Z,1.25
2023-08-07T03:14:57.236Z,1.13
2023-08-07T03:18:02.121Z,1.30
2023-08-07T03:24:27.254Z,1.30
2023-08-07T03:27:33.194Z,1.20
2023-08-07T03:30:38.452Z,1.20
2023-08-07T03:33:55.753Z,1.10
2023-08-07T03:37:08.271Z,1.23
2023-08-07T03:40:12.617Z,1.13
2023-08-07T03:43:18.370Z,1.30
2023-08-07T03:46:31.448Z,1.08
2023-08-07T03:49:45.734Z,1.10
2023-08-07T03:52:52.406Z,1.20
2023-08-07T03:55:57.319Z,1.02
2023-08-07T03:59:03.416Z,1.20
2023-08-07T04:02:18.423Z,1.10
2023-08-07T04:05:23.317Z,1.20
2023-08-07T04:08:27.279Z,1.15
2023-08-07T04:11:31.280Z,1.30
2023-08-07T04:14:35.842Z,1.30
2023-08-07T04:17:46.695Z,1.30
2023-08-07T04:20:58.313Z,1.30
2023-08-07T04:24:10.754Z,1.20
2023-08-07T04:27:23.834Z,1.05
2023-08-07T04:30:30.793Z,1.07
2023-08-07T04:33:35.936Z,1.17
2023-08-07T04:36:39.710Z,1.25
2023-08-07T04:39:44.922Z,1.10
2023-08-07T04:43:02.500Z,1.48
2023-08-07T04:46:07.968Z,1.33
2023-08-07T04:49:24.148Z,1.10
2023-08-07T04:52:28.256Z,1.13
2023-08-07T04:55:35.511Z,1.08
2023-08-07T04:58:42.467Z,1.20
2023-08-07T05:01:44.544Z,1.50
2023-08-07T05:04:52.710Z,1.10
2023-08-07T05:07:58.212Z,1.27
2023-08-07T05:11:03.341Z,1.30
2023-08-07T05:14:05.606Z,1.10
2023-08-07T05:17:09.484Z,1.17
2023-08-07T05:20:13.279Z,1.20
2023-08-07T05:23:17.422Z,1.30
2023-08-07T05:26:19.930Z,1.40
2023-08-07T05:29:23.433Z,1.30
2023-08-07T05:32:25.421Z,1.40
2023-08-07T05:35:29.385Z,1.38
2023-08-07T05:38:33.731Z,1.13
2023-08-07T05:41:43.130Z,1.30
2023-08-07T05:44:46.061Z,1.10
2023-08-07T05:47:50.181Z,1.50
2023-08-07T05:50:54.385Z,1.10
2023-08-07T05:53:58.407Z,1.73
2023-08-07T05:57:03.176Z,1.33
2023-08-07T06:00:08.992Z,1.33
2023-08-07T06:06:45.176Z,1.30
2023-08-07T06:09:52.445Z,1.20
2023-08-07T06:12:56.847Z,1.40
2023-08-07T06:16:08.563Z,1.40
2023-08-07T06:22:29.576Z,1.20
2023-08-07T06:25:43.613Z,1.40
2023-08-07T06:28:48.276Z,1.52
2023-08-07T06:31:54.012Z,1.25
2023-08-07T06:34:58.416Z,1.55
2023-08-07T06:38:00.425Z,1.27
2023-08-07T06:41:04.121Z,1.27
2023-08-07T06:44:06.204Z,1.30
2023-08-07T06:47:11.018Z,1.40
2023-08-07T06:50:14.742Z,1.30
2023-08-07T06:53:20.743Z,1.30
2023-08-07T06:56:26.675Z,1.40
2023-08-07T06:59:31.108Z,1.60
2023-08-07T07:02:34.152Z,1.40
2023-08-07T07:05:39.135Z,1.30
2023-08-07T07:08:42.784Z,1.30
2023-08-07T07:11:48.279Z,1.10
2023-08-07T07:14:54.415Z,1.20
2023-08-07T07:17:59.823Z,1.33
2023-08-07T07:21:27.586Z,1.40
2023-08-07T07:24:32.578Z,1.30
2023-08-07T07:27:38.359Z,1.40
2023-08-07T07:30:43.655Z,1.27
2023-08-07T07:33:53.597Z,1.43
2023-08-07T07:36:58.494Z,1.20
2023-08-07T07:40:04.450Z,1.30
2023-08-07T07:43:06.535Z,1.30
2023-08-07T07:46:09.690Z,1.47
2023-08-07T07:49:14.200Z,1.20
2023-08-07T07:52:16.663Z,1.20
2023-08-07T07:55:21.879Z,1.27
2023-08-07T07:58:33.912Z,1.67
2023-08-07T08:01:40.059Z,1.33
2023-08-07T08:04:44.706Z,1.52
2023-08-07T08:07:47.051Z,1.38
2023-08-07T08:11:03.517Z,1.50
2023-08-07T08:14:07.558Z,1.27
2023-08-07T08:17:13.019Z,1.30
2023-08-07T08:20:19.309Z,1.35
2023-08-07T08:23:25.331Z,1.30
2023-08-07T08:26:27.529Z,1.33
2023-08-07T08:29:32.798Z,1.83
2023-08-07T08:32:37.021Z,1.60
2023-08-07T08:35:46.509Z,1.40
2023-08-07T08:38:53.006Z,1.38
2023-08-07T08:41:56.633Z,1.60
2023-08-07T08:45:02.749Z,1.48
2023-08-07T08:48:28.392Z,1.47
2023-08-07T08:51:41.154Z,1.42
2023-08-07T08:54:46.585Z,1.48
2023-08-07T08:57:52.435Z,1.40
2023-08-07T09:00:55.223Z,1.50
2023-08-07T09:03:59.803Z,1.33
2023-08-07T09:07:08.714Z,1.50
2023-08-07T09:10:28.050Z,1.70
2023-08-07T09:13:40.623Z,1.37
2023-08-07T09:16:48.013Z,1.33
2023-08-07T09:19:53.653Z,1.40
2023-08-07T09:22:57.507Z,1.30
2023-08-07T09:29:31.749Z,1.27
2023-08-07T09:32:37.121Z,1.30
2023-08-07T09:35:41.052Z,1.60
2023-08-07T09:38:47.151Z,1.40
2023-08-07T09:41:59.848Z,1.45
2023-08-07T09:45:11.365Z,1.40
2023-08-07T09:48:17.396Z,1.35
2023-08-07T09:51:21.687Z,1.40
2023-08-07T09:54:26.846Z,1.33
2023-08-07T09:57:41.087Z,1.50
2023-08-07T10:00:52.817Z,1.60
2023-08-07T10:03:58.728Z,1.47
2023-08-07T10:07:25.849Z,1.30
2023-08-07T10:10:37.322Z,1.38
2023-08-07T10:13:42.696Z,1.38
2023-08-07T10:16:47.567Z,1.30
2023-08-07T10:19:52.829Z,1.48
2023-08-07T10:23:03.313Z,1.30
2023-08-07T10:26:08.905Z,1.30
2023-08-07T10:29:16.162Z,1.30
2023-08-07T10:32:31.309Z,1.23
2023-08-07T10:35:34.907Z,1.33
2023-08-07T10:38:37.546Z,1.25
2023-08-07T10:41:50.880Z,1.48
2023-08-07T10:44:54.413Z,1.30
2023-08-07T10:51:36.931Z,1.40
2023-08-07T10:54:59.586Z,1.30
2023-08-07T10:58:02.158Z,1.23
2023-08-07T11:01:41.341Z,1.30
2023-08-07T11:04:44.227Z,1.40
2023-08-07T11:07:47.185Z,1.30
2023-08-07T11:10:49.266Z,1.20
2023-08-07T11:13:52.121Z,1.20
2023-08-07T11:16:56.538Z,1.17
2023-08-07T11:20:00.946Z,1.40
2023-08-07T11:23:07.171Z,1.30
2023-08-07T11:26:13.274Z,1.40
2023-08-07T11:29:23.765Z,1.50
2023-08-07T11:32:28.113Z,1.20
2023-08-07T11:35:42.038Z,1.30
2023-08-07T11:38:45.873Z,1.30
2023-08-07T11:41:55.490Z,1.33
2023-08-07T11:44:59.832Z,1.30
2023-08-07T11:48:06.201Z,1.50
2023-08-07T11:51:11.583Z,1.40
2023-08-07T11:54:17.935Z,1.40
2023-08-07T11:57:22.573Z,1.20
2023-08-07T12:00:31.286Z,1.20
2023-08-07T12:03:43.906Z,1.20
2023-08-07T12:06:58.595Z,1.23
2023-08-07T12:10:08.007Z,1.30
2023-08-07T12:13:14.043Z,1.10
2023-08-07T12:16:18.573Z,1.10
2023-08-07T12:19:23.870Z,1.08
2023-08-07T12:22:29.663Z,1.20
2023-08-07T12:25:42.083Z,1.13
2023-08-07T12:28:47.954Z,1.20
2023-08-07T12:31:52.214Z,1.43
2023-08-07T12:38:06.137Z,1.27
2023-08-07T12:41:44.757Z,1.10
2023-08-07T12:44:32.581Z,1.10
2023-08-07T12:47:34.685Z,1.30
2023-08-07T12:50:38.968Z,1.27
2023-08-07T12:53:51.254Z,1.23
2023-08-07T12:56:57.044Z,1.33
2023-08-07T12:59:59.028Z,1.40
2023-08-07T13:03:01.145Z,1.13
2023-08-07T13:09:22.828Z,1.20
2023-08-07T13:12:25.883Z,1.10
2023-08-07T13:15:31.034Z,1.13
2023-08-07T13:18:36.393Z,1.07
2023-08-07T13:21:41.398Z,1.20
2023-08-07T13:24:52.289Z,1.20
2023-08-07T13:27:59.549Z,1.20
2023-08-07T13:31:05.617Z,1.30
2023-08-07T13:34:11.661Z,1.30
2023-08-07T13:37:16.856Z,1.20
2023-08-07T13:40:22.122Z,1.20
2023-08-07T13:43:23.741Z,1.20
2023-08-07T13:46:28.280Z,1.20
2023-08-07T13:49:31.515Z,1.33
2023-08-07T13:52:37.977Z,1.20
2023-08-07T13:55:41.909Z,1.30
2023-08-07T13:58:46.030Z,1.13
2023-08-07T14:01:54.760Z,1.30
2023-08-07T14:04:58.514Z,1.33
2023-08-07T14:08:03.544Z,1.38
2023-08-07T14:11:09.181Z,1.27
2023-08-07T14:14:14.703Z,1.27
2023-08-07T14:20:41.487Z,1.40
2023-08-07T14:23:53.635Z,1.38
2023-08-07T14:26:55.956Z,1.50
2023-08-07T14:30:01.521Z,1.40
2023-08-07T14:33:04.642Z,1.47
2023-08-07T14:36:10.057Z,1.45
2023-08-07T14:42:31.577Z,1.40
2023-08-07T14:45:44.284Z,1.40
2023-08-07T14:48:47.988Z,1.40
2023-08-07T14:51:53.443Z,1.30
2023-08-07T14:54:58.932Z,1.40
2023-08-07T14:58:04.715Z,1.40
2023-08-07T15:01:10.814Z,1.60
2023-08-07T15:04:15.178Z,1.40
2023-08-07T15:07:18.259Z,1.30
2023-08-07T15:10:24.917Z,1.38
2023-08-07T15:13:31.244Z,1.58
2023-08-07T15:16:42.137Z,1.40
2023-08-07T15:19:46.901Z,1.40
2023-08-07T15:22:52.834Z,1.38
2023-08-07T15:25:54.894Z,1.27
2023-08-07T15:28:57.006Z,1.60
2023-08-07T15:31:59.765Z,1.60
2023-08-07T15:35:01.808Z,1.85
2023-08-07T15:38:04.464Z,1.50
2023-08-07T15:41:08.833Z,1.60
2023-08-07T15:47:27.913Z,1.58
2023-08-07T15:50:32.489Z,1.50
2023-08-07T15:53:35.042Z,1.63
2023-08-07T15:56:38.545Z,1.70
2023-08-07T15:59:44.165Z,1.53
2023-08-07T16:02:50.837Z,1.60
2023-08-07T16:05:56.931Z,1.63
2023-08-07T16:08:59.038Z,1.50
2023-08-07T16:12:05.100Z,1.55
2023-08-07T16:15:12.060Z,1.85
2023-08-07T16:18:16.671Z,1.40
2023-08-07T16:21:21.068Z,1.50
2023-08-07T16:24:25.725Z,1.70
2023-08-07T16:27:36.897Z,1.50
2023-08-07T16:30:41.462Z,1.65
2023-08-07T16:33:47.522Z,1.60
2023-08-07T16:36:52.889Z,1.80
2023-08-07T16:39:58.151Z,1.77
2023-08-07T16:43:09.434Z,1.63
2023-08-07T16:46:13.069Z,1.60
2023-08-07T16:49:19.902Z,1.40
2023-08-07T16:52:24.491Z,1.60
2023-08-07T16:55:29.895Z,1.67
2023-08-07T16:58:33.752Z,1.60
2023-08-07T17:01:35.966Z,1.70
2023-08-07T17:04:39.018Z,1.50
2023-08-07T17:07:45.087Z,1.70
2023-08-07T17:10:50.319Z,2.25
2023-08-07T17:13:54.915Z,2.20
2023-08-07T17:17:06.375Z,1.95
2023-08-07T17:20:12.735Z,1.90
2023-08-07T17:23:18.700Z,1.80
2023-08-07T17:26:21.144Z,1.63
2023-08-07T17:29:24.971Z,1.70
2023-08-07T17:32:27.106Z,1.73
2023-08-07T17:35:41.285Z,1.50
2023-08-07T17:38:46.522Z,1.70
2023-08-07T17:41:49.274Z,1.80
2023-08-07T17:44:54.110Z,1.90
2023-08-07T17:47:59.444Z,1.80
2023-08-07T17:51:02.963Z,1.90
2023-08-07T17:54:07.682Z,2.00
2023-08-07T17:57:11.078Z,2.22
2023-08-07T18:00:18.829Z,2.40
2023-08-07T18:03:22.763Z,2.10
2023-08-07T18:06:26.174Z,2.03
2023-08-07T18:09:30.665Z,1.92
2023-08-07T18:12:33.306Z,1.90
2023-08-07T18:15:38.261Z,2.20
2023-08-07T18:18:42.111Z,2.00
2023-08-07T18:21:46.682Z,2.03
2023-08-07T18:24:57.503Z,1.90
2023-08-07T18:28:02.299Z,2.00
2023-08-07T18:31:09.001Z,2.00
2023-08-07T18:34:13.868Z,1.90
2023-08-07T18:37:19.615Z,2.50
2023-08-07T18:40:23.248Z,2.20
2023-08-07T18:43:27.039Z,2.20
2023-08-07T18:46:30.312Z,1.80
2023-08-07T18:49:33.242Z,1.80
2023-08-07T18:52:37.964Z,1.80
2023-08-07T18:55:42.667Z,2.20
2023-08-07T18:58:47.636Z,2.00
2023-08-07T19:01:52.862Z,1.83
2023-08-07T19:04:58.518Z,1.70
2023-08-07T19:08:12.091Z,1.70
2023-08-07T19:11:18.869Z,1.80
2023-08-07T19:14:23.588Z,1.60
2023-08-07T19:17:28.351Z,1.60
2023-08-07T19:20:32.560Z,1.50
2023-08-07T19:23:36.201Z,1.70
2023-08-07T19:26:38.577Z,1.60
2023-08-07T19:29:43.542Z,1.80
2023-08-07T19:32:54.515Z,2.42
2023-08-07T19:35:57.744Z,2.20
2023-08-07T19:39:04.684Z,2.27
2023-08-07T19:42:09.839Z,2.45
2023-08-07T19:45:12.394Z,2.60
2023-08-07T19:48:14.523Z,3.03
2023-08-07T19:51:17.884Z,2.60
2023-08-07T19:54:19.950Z,1.77
2023-08-07T19:57:22.015Z,1.50
2023-08-07T20:00:24.284Z,1.40
2023-08-07T20:03:29.789Z,1.27
2023-08-07T20:06:35.396Z,1.30
2023-08-07T20:09:51.432Z,1.20
2023-08-07T20:12:56.148Z,1.10
2023-08-07T20:16:08.703Z,1.40
2023-08-07T20:19:12.264Z,1.23
2023-08-07T20:22:42.978Z,1.63
2023-08-07T20:25:46.255Z,1.60
2023-08-07T20:28:52.270Z,2.10
2023-08-07T20:31:57.640Z,1.67
2023-08-07T20:35:08.593Z,1.40
2023-08-07T20:38:12.206Z,1.98
2023-08-07T20:41:16.001Z,2.50
2023-08-07T20:44:20.252Z,2.30
2023-08-07T20:47:31.498Z,1.90
2023-08-07T20:50:37.463Z,2.10
2023-08-07T20:53:42.462Z,1.70
2023-08-07T20:56:44.359Z,1.40
2023-08-07T20:59:47.851Z,1.50
2023-08-07T21:02:50.843Z,1.50
2023-08-07T21:06:03.557Z,1.40
2023-08-07T21:09:09.579Z,1.30
2023-08-07T21:12:15.276Z,1.50
2023-08-07T21:15:24.873Z,1.40
2023-08-07T21:18:30.515Z,1.20
2023-08-07T21:21:34.414Z,1.25
2023-08-07T21:24:40.166Z,1.30
2023-08-07T21:27:44.668Z,1.30
2023-08-07T21:30:48.040Z,1.30
2023-08-07T21:33:52.481Z,1.20
2023-08-07T21:37:07.267Z,1.20
2023-08-07T21:40:11.257Z,1.13
2023-08-07T21:46:32.281Z,1.17
2023-08-07T21:49:37.949Z,1.20
2023-08-07T21:52:40.031Z,1.30
2023-08-07T21:55:45.379Z,1.30
2023-08-07T21:58:50.618Z,1.23
2023-08-07T22:01:54.194Z,1.20
2023-08-07T22:04:56.704Z,1.27
2023-08-07T22:08:02.756Z,1.30
2023-08-07T22:11:11.914Z,1.15
2023-08-07T22:14:26.236Z,1.10
2023-08-07T22:17:31.671Z,1.30
2023-08-07T22:20:35.345Z,1.30
2023-08-07T22:23:39.813Z,1.35
2023-08-07T22:26:47.981Z,1.20
2023-08-07T22:29:50.620Z,1.27
2023-08-07T22:33:02.440Z,1.23
2023-08-07T22:36:06.496Z,1.40
2023-08-07T22:42:37.985Z,1.27
2023-08-07T22:45:49.529Z,1.10
2023-08-07T22:48:51.706Z,1.38
2023-08-07T22:51:55.455Z,1.30
2023-08-07T22:55:00.239Z,1.10
2023-08-07T22:58:03.468Z,1.30
2023-08-07T23:01:08.452Z,1.33
2023-08-07T23:04:13.492Z,1.10
2023-08-07T23:07:20.598Z,1.20
2023-08-07T23:10:24.066Z,1.10
2023-08-07T23:13:37.611Z,1.30
2023-08-07T23:16:43.804Z,1.07
2023-08-07T23:19:58.562Z,1.30
2023-08-07T23:23:10.851Z,1.20
2023-08-07T23:26:16.232Z,1.20
2023-08-07T23:29:19.290Z,1.20
2023-08-07T23:32:31.933Z,1.00
2023-08-07T23:35:34.613Z,1.10
2023-08-07T23:38:39.966Z,1.10
2023-08-07T23:41:50.703Z,1.10
2023-08-07T23:44:57.423Z,1.10
2023-08-07T23:48:06.000Z,1.30
2023-08-07T23:51:11.588Z,1.20
2023-08-07T23:54:15.184Z,1.10
